Flight Track Log - Related Links

Times and Time Zones

All times are in EDT time to prevent confusion due to time zone crossing. See the N6ZE flight status page for this flight to view local times or setup timezone preferences in your user account.

Time Position Orientation Groundspeed Altitude Reporting Facility
EDT Latitude Longitude Course Direction KTS MPH feet Rate Location/Type
Fri 07:52:35 PM 25.6519 -80.4108 82° East 173 199 800  Level Miami Center
Fri 07:53:42 PM 25.6600 -80.3492 82° East 215 247 2,400 1,116 Climbing Miami Center
Fri 07:54:01 PM 25.6617 -80.3283 85° East 194 223 2,400 590 Level Miami Center
Fri 07:54:43 PM 25.6431 -80.2878 117° Southeast 227 261 3,000 1,355 Climbing Miami Center
Fri 07:55:03 PM 25.6258 -80.2786 154° Southeast 221 254 3,800 2,700 Climbing Miami Center
Fri 07:55:43 PM 25.5803 -80.2875 190° South 238 274 5,700 2,656 Climbing Miami Center
Fri 07:56:04 PM 25.5681 -80.3006 224° Southwest 228 262 6,500 2,776 Climbing Miami Center
Fri 07:56:50 PM 25.5653 -80.3603 267° West 240 276 8,800 2,754 Climbing Miami Center
Fri 07:57:05 PM 25.5733 -80.3700 313° West 242 278 9,300 2,656 Climbing Miami Center
Fri 07:57:51 PM 25.6217 -80.3947 335° Northwest 241 277 11,500 2,516 Climbing Miami Center
Fri 07:58:07 PM 25.6339 -80.3950 359° North 239 275 11,900 2,361 Climbing Miami Center
Fri 07:58:52 PM 25.6875 -80.4114 345° North 244 281 13,900 2,262 Climbing Miami Center
Fri 07:59:08 PM 25.6983 -80.4122 356° North 240 276 14,200 1,558 Climbing Miami Center
Fri 08:00:09 PM 25.7625 -80.4406 338° Northwest 253 291 15,900 878 Climbing Miami Center
Fri 08:01:11 PM 25.8578 -80.4828 338° Northwest 322 371 16,000 634 Climbing Miami Center
Fri 08:02:12 PM 25.9453 -80.5206 339° North 338 389 17,200 1,525 Climbing Miami Center
Fri 08:03:13 PM 26.0272 -80.5547 339° North 317 365 19,100 1,854 Climbing Miami Center
Fri 08:04:15 PM 26.1061 -80.5850 341° North 302 348 21,000 1,854 Climbing Miami Center
Fri 08:05:16 PM 26.1839 -80.6122 343° North 294 338 22,900 984 Climbing Miami Center
Fri 08:06:17 PM 26.2769 -80.6544 338° Northwest 327 376 23,000 49 Climbing Miami Center
Fri 08:07:18 PM 26.3672 -80.7019 335° Northwest 354 407 23,000  Level Miami Center
Fri 08:08:20 PM 26.4517 -80.7503 333° Northwest 336 387 23,000  Level Miami Center
Fri 08:09:21 PM 26.5250 -80.7917 333° Northwest 298 343 23,000  Level Miami Center
Fri 08:10:22 PM 26.6039 -80.8314 336° Northwest 295 339 23,000  Level Miami Center
Fri 08:11:23 PM 26.6872 -80.8728 336° Northwest 317 365 23,000  Level Miami Center
Fri 08:12:25 PM 26.7769 -80.9033 343° North 346 398 23,000  Level Miami Center
Fri 08:13:26 PM 26.8772 -80.9378 343° North 359 413 23,000  Level Miami Center
Fri 08:14:27 PM 26.9736 -80.9506 353° North 351 404 23,000  Level Miami Center
Fri 08:15:29 PM 27.0692 -80.9694 350° North 349 402 23,000  Level Miami Center
Fri 08:16:30 PM 27.1667 -80.9953 347° North 359 413 23,000  Level Miami Center
Fri 08:17:31 PM 27.2678 -81.0206 347° North 370 426 23,000  Level Miami Center
Fri 08:18:33 PM 27.3794 -81.0478 348° North 373 429 23,000  Level Miami Center
Fri 08:19:34 PM 27.4839 -81.0733 348° North 380 437 23,000  Level Miami Center
Fri 08:20:35 PM 27.5803 -81.0972 348° North 385 443 23,000  Level Miami Center
Fri 08:21:36 PM 27.6842 -81.1225 348° North 384 442 23,000 -293 Level Miami Center
Fri 08:22:38 PM 27.7889 -81.1478 348° North 383 441 22,400 -829 Descending Miami Center
Fri 08:23:39 PM 27.9122 -81.1781 348° North 372 428 21,300 -689 Descending Miami Center
Fri 08:24:40 PM 28.0072 -81.2017 348° North 365 420 21,000 -146 Descending Miami Center
Fri 08:25:42 PM 28.1092 -81.2272 348° North 360 414 21,000  Level Miami Center
Fri 08:26:43 PM 28.2144 -81.2533 348° North 367 422 21,000 -492 Level Miami Center
Fri 08:27:44 PM 28.3089 -81.2769 348° North 363 418 20,000 -923 Descending Miami Center
Fri 08:28:40 PM 28.3883 -81.2975 347° North 347 399 19,200 -517 Descending Jacksonville Center
Fri 08:29:40 PM 28.4722 -81.3197 347° North 322 371 19,000 -100 Descending Jacksonville Center
Fri 08:30:40 PM 28.5494 -81.3397 347° North 303 349 19,000  Level Jacksonville Center
Fri 08:31:40 PM 28.6292 -81.3600 347° North 290 334 19,000  Level Jacksonville Center
Fri 08:32:40 PM 28.7086 -81.3778 349° North 290 334 19,000 -100 Level Jacksonville Center
Fri 08:33:40 PM 28.7861 -81.3906 352° North 285 328 18,800 -600 Descending Jacksonville Center
Fri 08:34:40 PM 28.8589 -81.3800 North 274 315 17,800 -850 Descending Jacksonville Center
Fri 08:35:40 PM 28.9256 -81.3744 North 250 288 17,100 -400 Descending Jacksonville Center
Fri 08:36:40 PM 28.9964 -81.3636 North 250 288 17,000 -253 Descending Jacksonville Center
Fri 08:37:15 PM 29.0422 -81.3606 North 261 300 16,700 -500 Descending Jacksonville Center
Fri 08:37:40 PM 29.0675 -81.3603 North 256 295 16,500 -988 Descending Jacksonville Center
Fri 08:38:40 PM 29.1489 -81.3592 North 262 302 15,300 -1,200 Descending Jacksonville Center
Fri 08:39:40 PM 29.2303 -81.3578 North 276 318 14,100 -1,450 Descending Jacksonville Center
Fri 08:40:40 PM 29.3136 -81.3589 359° North 290 334 12,400 -1,700 Descending Jacksonville Center
Fri 08:41:40 PM 29.3992 -81.3550 North 290 334 10,700 -1,750 Descending Jacksonville Center
Fri 08:42:40 PM 29.4869 -81.3536 North 290 334 8,900 -1,700 Descending Jacksonville Center
Fri 08:43:40 PM 29.5600 -81.3503 North 277 319 7,300 -1,600 Descending Jacksonville Center
Fri 08:44:40 PM 29.6350 -81.3514 359° North 271 312 5,700 -1,600 Descending Jacksonville Center
Fri 08:45:40 PM 29.7019 -81.3481 North 271 312 4,100 -1,750 Descending Jacksonville Center
Fri 08:45:52 PM 29.7247 -81.3453 North 253 291 3,600 -1,500 Descending Jacksonville Center
Fri 08:46:40 PM 29.7667 -81.3589 344° North 254 292 2,600 -1,279 Descending Jacksonville Center
Fri 08:46:53 PM 29.7875 -81.3633 350° North 222 255 2,300 -740 Descending Jacksonville Center
Fri 08:47:53 PM 29.8442 -81.3792 346° North 211 243 1,700 -347 Descending Jacksonville Center
Fri 08:48:54 PM 29.8986 -81.3953 346° North 202 232 1,600 -49 Descending Jacksonville Center
Fri 08:49:55 PM 29.9492 -81.4208 336° Northwest 192 221 1,600 -90 Level Jacksonville Center
Fri 08:51:07 PM 29.9906 -81.4056 18° North 135 155 1,400 -496 Descending Jacksonville Center
Fri 08:52:08 PM 29.9797 -81.3722 111° Southeast 111 128 500 -885 Descending Jacksonville Center

Login

Don't have an account? Register now (free) for customized features, flight alerts, and more!